Hughesville, Maryland
Current Conditions -  °F | °C
As of 6:31 PM on Wednesday 22 Oct 2014 (Local Time) from K2W6 Reporting Station
Overcast Overcast  
Wind Chill: 52°   Ceiling: 1800
Heat Index: 52°   Visibility: 10mi
Dew Point: 48°   Wind: 6mph
Humidity: 88%   Direction: 310°NW
Pressure: 29.91"   Gusts: NA
Location:  38.53°N, 76.78°W
Report Text: K2W6 222231Z AUTO 31005KT 10SM SCT013 BKN018 OVC031 11/09 A2991 RMK AO1
Loading
Personal Weather Stations






























Interactive Weather Map
Tropical Storm Tracking
New forecast layout! Learn more

10-Day Weather Forecast

Advertisements
Track Severe Weather on mobile